Time;durP1;ratioP1;P1;durP2;ratioP2;P2;SDS_P1;SDS_P2;PMS_P1;PMS_P2;Temp;Humidity;BMP_temperature;BMP_pressure;BME280_temperature;BME280_humidity;BME280_pressure;Samples;Min_cycle;Max_cycle;Signal;HPM_P1;HPM_P2
2021/05/04 00:02:07;;;;;;;;;;;;;;;8.39;49.54;100069.81;1803129;78;20560;-64
2021/05/04 00:04:35;;;;;;;;;;;;;;;8.36;49.53;100064.90;1805206;78;20134;-62
2021/05/04 00:07:03;;;;;;;;;;;;;;;8.33;49.78;100069.82;1794849;78;20488;-64
2021/05/04 00:09:31;;;;;;;;;;;;;;;8.29;49.75;100076.11;1799627;78;23481;-65
2021/05/04 00:11:59;;;;;;;;;;;;;;;8.27;49.76;100076.02;1779315;78;20526;-63
2021/05/04 00:14:28;;;;;;;;;;;;;;;8.22;49.82;100073.45;1813958;78;20527;-63
2021/05/04 00:16:55;;;;;;;;;;;;;;;8.18;49.78;100078.09;1807509;78;20138;-62
2021/05/04 00:19:24;;;;;;;;;;;;;;;8.11;50.03;100085.28;1812228;78;20499;-63
2021/05/04 00:21:52;;;;;;;;;;;;;;;8.07;50.07;100076.89;1791134;80;21382;-63
2021/05/04 00:24:20;;;;;;;;;;;;;;;8.04;50.11;100078.64;1809009;78;20173;-63
2021/05/04 00:26:48;;;;;;;;;;;;;;;8.01;50.06;100077.20;1808293;78;20177;-63
2021/05/04 00:29:16;;;;;;;;;;;;;;;7.98;50.17;100072.78;1794553;78;20145;-63
2021/05/04 00:31:44;;;;;;;;;;;;;;;7.94;50.35;100069.72;1810487;78;20133;-62
2021/05/04 00:34:12;;;;;;;;;;;;;;;7.92;50.30;100074.95;1784853;78;21212;-62
2021/05/04 00:36:40;;;;;;;;;;;;;;;7.87;50.55;100077.72;1822434;78;20131;-63
2021/05/04 00:39:07;;;;;;;;;;;;;;;7.83;50.89;100067.67;1814031;78;20487;-63
2021/05/04 00:41:35;;;;;;;;;;;;;;;7.79;50.96;100066.44;1810929;78;20118;-61
2021/05/04 00:44:03;;;;;;;;;;;;;;;7.76;50.97;100067.69;1809930;78;20223;-61
2021/05/04 00:46:31;;;;;;;;;;;;;;;7.68;50.99;100071.37;1816555;77;21196;-64
2021/05/04 00:48:59;;;;;;;;;;;;;;;7.64;51.24;100063.50;1778833;78;20129;-62
2021/05/04 00:51:27;;;;;;;;;;;;;;;7.60;51.23;100059.59;1819991;78;20131;-62
2021/05/04 00:53:55;;;;;;;;;;;;;;;7.56;51.26;100061.55;1820667;78;20496;-63
2021/05/04 00:56:23;;;;;;;;;;;;;;;7.49;51.36;100067.71;1808163;78;20228;-63
2021/05/04 00:58:51;;;;;;;;;;;;;;;7.46;51.68;100069.42;1822061;78;21203;-63
2021/05/04 01:01:19;;;;;;;;;;;;;;;7.46;51.78;100064.61;1784801;78;20230;-63
2021/05/04 01:03:47;;;;;;;;;;;;;;;7.45;51.78;100066.97;1810449;78;20483;-64
2021/05/04 01:06:15;;;;;;;;;;;;;;;7.47;51.99;100064.41;1783890;79;20238;-63
2021/05/04 01:08:43;;;;;;;;;;;;;;;7.51;51.99;100070.17;1808115;78;20147;-62
2021/05/04 01:11:11;;;;;;;;;;;;;;;7.53;52.03;100065.44;1809290;78;21403;-63
2021/05/04 01:13:38;;;;;;;;;;;;;;;7.52;51.83;100059.30;1817378;78;20220;-64
2021/05/04 01:16:07;;;;;;;;;;;;;;;7.53;52.01;100064.11;1813651;78;20301;-63
2021/05/04 01:18:35;;;;;;;;;;;;;;;7.54;51.99;100070.56;1821481;78;20154;-64
2021/05/04 01:21:09;;;;;;;;;;;;;;;7.54;51.98;100068.42;1780039;79;20142;-64
2021/05/04 01:23:37;;;;;;;;;;;;;;;7.58;52.13;100069.62;1809712;78;21204;-64
2021/05/04 01:26:05;;;;;;;;;;;;;;;7.61;52.10;100062.58;1820460;78;20221;-64
2021/05/04 01:28:33;;;;;;;;;;;;;;;7.63;52.05;100073.04;1821397;78;20118;-63
2021/05/04 01:31:01;;;;;;;;;;;;;;;7.64;51.99;100067.99;1703024;84;20259;-64
2021/05/04 01:33:36;;;;;;;;;;;;;;;7.70;52.02;100069.86;1827464;77;20192;-63
2021/05/04 01:36:05;;;;;;;;;;;;;;;7.65;51.95;100069.12;1801702;77;20168;-63
2021/05/04 01:38:32;;;;;;;;;;;;;;;7.68;52.04;100074.04;1837679;77;22134;-63
2021/05/04 01:41:00;;;;;;;;;;;;;;;7.68;52.00;100074.04;1831578;77;20202;-63
2021/05/04 01:43:28;;;;;;;;;;;;;;;7.68;52.19;100071.37;1831551;77;20113;-63
2021/05/04 01:45:56;;;;;;;;;;;;;;;7.64;52.20;100075.50;1833940;77;20146;-62
2021/05/04 01:48:24;;;;;;;;;;;;;;;7.57;52.46;100074.68;1834347;77;20127;-63
2021/05/04 01:50:53;;;;;;;;;;;;;;;7.51;52.62;100068.31;1800356;77;21165;-66
2021/05/04 01:53:20;;;;;;;;;;;;;;;7.46;52.90;100069.95;1836163;77;20214;-64
2021/05/04 01:55:48;;;;;;;;;;;;;;;7.42;53.00;100068.22;1830613;77;20109;-63
2021/05/04 01:58:17;;;;;;;;;;;;;;;7.37;53.15;100075.47;1835331;77;20156;-64
2021/05/04 02:00:45;;;;;;;;;;;;;;;7.36;53.59;100077.01;1715488;81;20223;-66
2021/05/04 02:03:13;;;;;;;;;;;;;;;7.34;53.63;100083.07;1741581;81;21152;-64
2021/05/04 02:05:41;;;;;;;;;;;;;;;7.32;53.50;100082.47;1736025;81;20227;-65
2021/05/04 02:08:17;;;;;;;;;;;;;;;7.34;53.45;100082.55;1827847;77;20196;-63
2021/05/04 02:10:46;;;;;;;;;;;;;;;7.28;53.37;100087.89;1818204;79;20490;-63
2021/05/04 02:13:15;;;;;;;;;;;;;;;7.24;53.38;100086.12;1782935;79;21395;-64
2021/05/04 02:15:43;;;;;;;;;;;;;;;7.21;53.44;100085.72;1817907;78;20282;-62
2021/05/04 02:18:11;;;;;;;;;;;;;;;7.16;53.66;100082.34;1818175;78;20208;-65
2021/05/04 02:20:39;;;;;;;;;;;;;;;7.13;53.72;100088.08;1818129;79;20180;-64
2021/05/04 02:23:07;;;;;;;;;;;;;;;7.09;53.73;100096.16;1809062;79;20137;-64
2021/05/04 02:25:35;;;;;;;;;;;;;;;7.05;53.77;100087.73;1718878;82;21169;-63
2021/05/04 02:28:03;;;;;;;;;;;;;;;7.05;53.99;100096.25;1766826;80;20492;-64
2021/05/04 02:30:33;;;;;;;;;;;;;;;7.03;54.18;100096.45;1747888;80;20275;-64
2021/05/04 02:33:01;;;;;;;;;;;;;;;7.04;54.31;100101.25;1737119;82;20169;-63
2021/05/04 02:35:29;;;;;;;;;;;;;;;7.04;54.35;100100.77;1736844;81;20227;-65
2021/05/04 02:37:56;;;;;;;;;;;;;;;7.03;54.44;100104.97;1734888;82;21220;-63
2021/05/04 02:40:24;;;;;;;;;;;;;;;7.03;54.57;100108.97;1705316;82;20215;-64
2021/05/04 02:42:52;;;;;;;;;;;;;;;7.01;54.54;100112.64;1733875;82;20232;-64
2021/05/04 02:45:20;;;;;;;;;;;;;;;7.00;54.67;100113.66;1735001;82;20279;-63
2021/05/04 02:47:47;;;;;;;;;;;;;;;7.02;54.71;100116.13;1705424;82;20188;-64
2021/05/04 02:50:15;;;;;;;;;;;;;;;7.02;54.77;100121.45;1735127;82;21172;-64
2021/05/04 02:52:43;;;;;;;;;;;;;;;7.02;54.79;100113.45;1736100;80;20168;-65
2021/05/04 02:55:13;;;;;;;;;;;;;;;7.01;54.89;100119.83;1743392;80;20152;-63
2021/05/04 02:57:41;;;;;;;;;;;;;;;6.98;54.92;100122.37;1741333;80;20159;-63
2021/05/04 03:00:11;;;;;;;;;;;;;;;7.00;55.01;100134.17;1747211;80;20220;-63
2021/05/04 03:02:39;;;;;;;;;;;;;;;6.99;55.15;100134.69;1735168;82;21197;-65
2021/05/04 03:05:08;;;;;;;;;;;;;;;7.01;55.25;100136.63;1737620;80;20159;-64
2021/05/04 03:07:37;;;;;;;;;;;;;;;7.03;55.26;100137.77;1741834;80;20227;-64
2021/05/04 03:10:06;;;;;;;;;;;;;;;7.06;55.33;100141.88;1748710;80;20166;-63
2021/05/04 03:12:34;;;;;;;;;;;;;;;7.10;55.36;100146.61;1744171;80;20492;-64
2021/05/04 03:15:04;;;;;;;;;;;;;;;7.14;55.36;100149.68;1737811;82;21394;-63
2021/05/04 03:17:31;;;;;;;;;;;;;;;7.13;55.30;100153.39;1750507;80;20234;-62
2021/05/04 03:19:59;;;;;;;;;;;;;;;7.12;55.46;100157.06;1734286;82;20228;-65
2021/05/04 03:22:27;;;;;;;;;;;;;;;7.12;55.55;100160.55;1704978;82;20140;-65
2021/05/04 03:24:55;;;;;;;;;;;;;;;7.20;55.55;100162.23;1744722;80;20502;-66
2021/05/04 03:27:23;;;;;;;;;;;;;;;7.35;55.55;100166.88;1748484;80;21992;-66
2021/05/04 03:29:50;;;;;;;;;;;;;;;7.58;55.19;100173.67;1766212;80;20294;-65
2021/05/04 03:32:18;;;;;;;;;;;;;;;7.83;54.80;100171.75;1760663;80;20296;-68
2021/05/04 03:34:46;;;;;;;;;;;;;;;8.24;54.33;100173.38;1706318;82;20188;-65
2021/05/04 03:37:14;;;;;;;;;;;;;;;9.02;53.21;100169.91;1735668;82;20222;-65
2021/05/04 03:39:43;;;;;;;;;;;;;;;9.95;51.48;100163.66;1731098;82;22699;-66
2021/05/04 03:42:11;;;;;;;;;;;;;;;10.89;49.60;100162.75;1709763;80;20794;-66
2021/05/04 03:44:38;;;;;;;;;;;;;;;11.64;47.67;100165.02;1764729;80;20146;-64
2021/05/04 03:47:07;;;;;;;;;;;;;;;12.03;46.35;100161.98;1756213;80;20125;-63
2021/05/04 03:49:35;;;;;;;;;;;;;;;12.20;45.83;100162.08;1766412;80;20260;-64
2021/05/04 03:52:02;;;;;;;;;;;;;;;12.25;45.43;100166.25;1729003;80;21210;-64
2021/05/04 03:54:30;;;;;;;;;;;;;;;12.14;45.34;100167.86;1753109;80;20435;-64
2021/05/04 03:56:58;;;;;;;;;;;;;;;11.89;45.62;100168.05;1764601;80;20113;-63
2021/05/04 03:59:26;;;;;;;;;;;;;;;11.66;46.13;100170.99;1764084;80;20249;-63
2021/05/04 04:01:53;;;;;;;;;;;;;;;11.47;46.61;100170.23;1765098;80;20235;-63
2021/05/04 04:04:22;;;;;;;;;;;;;;;11.36;46.71;100166.45;1736332;82;21207;-62
2021/05/04 04:06:50;;;;;;;;;;;;;;;11.47;46.66;100168.06;1740653;80;20320;-64
2021/05/04 04:09:17;;;;;;;;;;;;;;;11.76;46.17;100169.06;1704171;82;20182;-64
2021/05/04 04:11:45;;;;;;;;;;;;;;;11.97;45.56;100163.72;1721712;82;20148;-64
2021/05/04 04:14:14;;;;;;;;;;;;;;;11.94;44.92;100165.53;1726953;81;20271;-64
2021/05/04 04:16:44;;;;;;;;;;;;;;;11.96;45.33;100163.42;1745715;81;20112;-63
2021/05/04 04:19:13;;;;;;;;;;;;;;;12.63;44.61;100164.91;1754347;81;20215;-63
2021/05/04 04:21:41;;;;;;;;;;;;;;;13.94;42.08;100160.64;1734487;81;20162;-62
2021/05/04 04:24:09;;;;;;;;;;;;;;;15.41;39.38;100163.34;1705829;82;20146;-64
2021/05/04 04:26:37;;;;;;;;;;;;;;;16.77;37.03;100162.16;1702931;81;20238;-62
2021/05/04 04:29:05;;;;;;;;;;;;;;;18.01;34.97;100157.80;1745363;81;22114;-64
2021/05/04 04:31:33;;;;;;;;;;;;;;;19.15;32.74;100152.03;1744684;81;20136;-64
2021/05/04 04:34:01;;;;;;;;;;;;;;;20.06;31.11;100157.09;1730566;81;20170;-63
2021/05/04 04:36:29;;;;;;;;;;;;;;;20.99;30.42;100160.97;1742849;81;20221;-64
2021/05/04 04:38:57;;;;;;;;;;;;;;;22.01;27.98;100160.52;1721702;82;20239;-66
2021/05/04 04:41:27;;;;;;;;;;;;;;;22.56;27.40;100161.99;1743441;81;21444;-64
2021/05/04 04:43:54;;;;;;;;;;;;;;;23.02;25.89;100158.86;1754834;81;20554;-64
2021/05/04 04:46:22;;;;;;;;;;;;;;;23.18;25.47;100159.92;1738078;81;20503;-65
2021/05/04 04:48:50;;;;;;;;;;;;;;;23.37;25.47;100164.67;1725011;82;20267;-64
2021/05/04 04:51:18;;;;;;;;;;;;;;;23.55;25.05;100167.55;1724724;82;20157;-64
2021/05/04 04:53:46;;;;;;;;;;;;;;;23.74;24.62;100167.36;1725927;82;23482;-65
2021/05/04 04:56:14;;;;;;;;;;;;;;;23.90;24.79;100171.94;1667871;85;20264;-63
2021/05/04 04:58:42;;;;;;;;;;;;;;;24.11;23.97;100172.20;1667517;85;20342;-64
2021/05/04 05:01:10;;;;;;;;;;;;;;;23.94;24.30;100167.45;1666857;85;20322;-62
2021/05/04 05:03:38;;;;;;;;;;;;;;;23.93;24.39;100172.10;1644833;85;20396;-64
2021/05/04 05:06:06;;;;;;;;;;;;;;;23.91;24.30;100160.67;1666859;85;20741;-64
2021/05/04 05:08:33;;;;;;;;;;;;;;;23.77;24.44;100165.38;1672922;84;20168;-64
2021/05/04 05:11:01;;;;;;;;;;;;;;;23.56;24.41;100159.60;1676860;84;20239;-65
2021/05/04 05:13:31;;;;;;;;;;;;;;;23.56;24.59;100156.30;1681807;82;20622;-65
2021/05/04 05:15:58;;;;;;;;;;;;;;;23.82;24.28;100161.70;1736083;82;20511;-64
2021/05/04 05:18:26;;;;;;;;;;;;;;;23.94;24.15;100165.52;1730904;82;21213;-65
2021/05/04 05:20:54;;;;;;;;;;;;;;;24.03;24.25;100161.46;1735231;82;20133;-65
2021/05/04 05:23:22;;;;;;;;;;;;;;;24.32;23.53;100165.61;1733345;82;20150;-64
2021/05/04 05:25:50;;;;;;;;;;;;;;;24.41;23.56;100171.12;1736287;82;20209;-64
2021/05/04 05:28:18;;;;;;;;;;;;;;;24.48;23.52;100167.38;1744708;80;20247;-65
2021/05/04 05:30:47;;;;;;;;;;;;;;;24.71;23.58;100169.50;1703969;82;21223;-65
2021/05/04 05:33:15;;;;;;;;;;;;;;;25.10;23.26;100165.63;1754002;80;20232;-65
2021/05/04 05:35:43;;;;;;;;;;;;;;;25.42;22.57;100164.95;1746377;80;20150;-64
2021/05/04 05:38:13;;;;;;;;;;;;;;;25.57;22.49;100160.33;1737371;82;20533;-65
2021/05/04 05:40:41;;;;;;;;;;;;;;;25.97;22.35;100173.85;1745509;80;20228;-65
2021/05/04 05:43:09;;;;;;;;;;;;;;;26.17;21.67;100157.82;1742508;80;22719;-65
2021/05/04 05:45:37;;;;;;;;;;;;;;;26.37;21.80;100165.92;1703779;82;20205;-65
2021/05/04 05:48:05;;;;;;;;;;;;;;;26.28;21.62;100163.75;1705017;82;20239;-65
2021/05/04 05:50:33;;;;;;;;;;;;;;;25.75;22.10;100171.30;1735308;82;20562;-65
2021/05/04 05:53:01;;;;;;;;;;;;;;;25.51;22.56;100167.95;1741564;80;20237;-65
2021/05/04 05:55:29;;;;;;;;;;;;;;;25.71;22.21;100164.28;1761528;80;23488;-66
2021/05/04 05:57:57;;;;;;;;;;;;;;;25.84;22.08;100162.50;1762685;80;20226;-66
2021/05/04 06:00:25;;;;;;;;;;;;;;;25.81;22.08;100165.32;1766939;80;20161;-65
2021/05/04 06:02:53;;;;;;;;;;;;;;;25.86;22.54;100174.74;1769058;80;20139;-66
2021/05/04 06:05:21;;;;;;;;;;;;;;;26.26;21.80;100170.95;1729728;80;20542;-64
2021/05/04 06:07:51;;;;;;;;;;;;;;;26.33;21.39;100169.88;1759207;80;21369;-66
2021/05/04 06:10:19;;;;;;;;;;;;;;;26.16;21.64;100165.81;1756999;81;20243;-66
2021/05/04 06:12:55;;;;;;;;;;;;;;;26.05;21.49;100162.05;1754790;81;20285;-64
2021/05/04 06:15:23;;;;;;;;;;;;;;;25.86;21.52;100166.51;1751615;81;20192;-64
2021/05/04 06:17:51;;;;;;;;;;;;;;;25.56;21.81;100165.59;1751219;81;20234;-68
2021/05/04 06:20:19;;;;;;;;;;;;;;;25.31;21.88;100170.76;1755734;81;22119;-64
2021/05/04 06:22:47;;;;;;;;;;;;;;;25.00;22.68;100171.67;1742178;81;20329;-64
2021/05/04 06:25:15;;;;;;;;;;;;;;;24.53;23.11;100169.16;1745810;81;20306;-65
2021/05/04 06:27:43;;;;;;;;;;;;;;;24.13;23.02;100161.20;1750330;81;20150;-65
2021/05/04 06:30:13;;;;;;;;;;;;;;;23.30;24.44;100163.48;1750349;81;20267;-69
2021/05/04 06:32:42;;;;;;;;;;;;;;;22.66;25.25;100176.02;1740403;81;20270;-64
2021/05/04 06:35:16;;;;;;;;;;;;;;;22.23;25.43;100161.22;1746697;81;20254;-63
2021/05/04 06:37:42;;;;;;;;;;;;;;;21.49;25.81;100168.71;1754030;81;20238;-65
2021/05/04 06:40:11;;;;;;;;;;;;;;;20.55;27.33;100170.19;1744810;81;20186;-66
2021/05/04 06:42:39;;;;;;;;;;;;;;;20.05;28.06;100162.27;1738352;81;20300;-64
2021/05/04 06:45:07;;;;;;;;;;;;;;;19.70;28.65;100175.03;1744038;81;21209;-65
2021/05/04 06:47:35;;;;;;;;;;;;;;;19.23;28.83;100171.28;1749123;81;20302;-64
2021/05/04 06:50:04;;;;;;;;;;;;;;;18.56;30.35;100164.77;1746590;81;20226;-64
2021/05/04 06:52:33;;;;;;;;;;;;;;;18.04;31.11;100171.38;1740848;81;20249;-65
2021/05/04 06:55:01;;;;;;;;;;;;;;;17.81;31.60;100170.79;1747495;81;20241;-65
2021/05/04 06:57:29;;;;;;;;;;;;;;;17.74;31.78;100166.20;1746731;81;21285;-66
2021/05/04 06:59:57;;;;;;;;;;;;;;;17.74;32.21;100163.50;1743424;81;20142;-64
2021/05/04 07:02:26;;;;;;;;;;;;;;;17.88;30.79;100170.53;1710347;81;20224;-65
2021/05/04 07:04:54;;;;;;;;;;;;;;;17.68;31.28;100172.16;1741519;81;20227;-64
2021/05/04 07:07:22;;;;;;;;;;;;;;;17.56;31.44;100175.66;1744994;81;20225;-64
2021/05/04 07:09:49;;;;;;;;;;;;;;;17.52;31.61;100175.95;1747246;80;21212;-63
2021/05/04 07:12:18;;;;;;;;;;;;;;;17.39;31.70;100181.34;1744894;80;20227;-64
2021/05/04 07:14:46;;;;;;;;;;;;;;;17.08;31.97;100187.22;1756131;80;20495;-64
2021/05/04 07:17:16;;;;;;;;;;;;;;;16.64;32.68;100178.33;1756387;80;20249;-64
2021/05/04 07:19:45;;;;;;;;;;;;;;;16.30;33.57;100184.64;1754941;80;20302;-64
2021/05/04 07:22:13;;;;;;;;;;;;;;;16.11;33.83;100177.47;1751913;80;21109;-63
2021/05/04 07:24:41;;;;;;;;;;;;;;;15.98;34.06;100179.27;1743988;80;20221;-65
2021/05/04 07:27:09;;;;;;;;;;;;;;;15.84;34.03;100177.00;1745596;80;20153;-65
2021/05/04 07:29:38;;;;;;;;;;;;;;;15.66;34.41;100181.39;1756717;80;20668;-64
2021/05/04 07:32:06;;;;;;;;;;;;;;;15.48;34.62;100184.73;1746509;80;20255;-64
2021/05/04 07:34:33;;;;;;;;;;;;;;;15.46;35.05;100176.09;1749492;80;21216;-64
2021/05/04 07:37:02;;;;;;;;;;;;;;;15.46;34.78;100187.41;1750246;80;20138;-65
2021/05/04 07:39:31;;;;;;;;;;;;;;;15.48;36.08;100191.48;1748771;80;20281;-65
2021/05/04 07:41:59;;;;;;;;;;;;;;;15.52;34.78;100185.06;1752544;80;20232;-65
2021/05/04 07:44:27;;;;;;;;;;;;;;;15.62;34.83;100197.83;1745459;80;20232;-64
2021/05/04 07:46:55;;;;;;;;;;;;;;;15.70;34.75;100197.38;1754223;80;21226;-65
2021/05/04 07:49:34;;;;;;;;;;;;;;;15.69;34.00;100193.04;1746059;80;20712;-64
2021/05/04 07:51:52;;;;;;;;;;;;;;;15.50;34.28;100196.64;1754875;80;20269;-63
2021/05/04 07:54:21;;;;;;;;;;;;;;;15.36;33.66;100185.44;1754201;80;20263;-63
2021/05/04 07:56:50;;;;;;;;;;;;;;;15.13;33.55;100197.33;1755985;80;20159;-66
2021/05/04 07:59:18;;;;;;;;;;;;;;;14.82;34.52;100191.55;1752981;80;21219;-62
2021/05/04 08:01:46;;;;;;;;;;;;;;;14.65;34.92;100187.03;1754462;80;20247;-69
2021/05/04 08:04:14;;;;;;;;;;;;;;;14.62;37.93;100194.80;1749556;80;20173;-69
2021/05/04 08:06:42;;;;;;;;;;;;;;;14.84;35.62;100180.80;1754207;80;20244;-70
2021/05/04 08:09:10;;;;;;;;;;;;;;;15.08;35.76;100189.19;1752772;80;20541;-68
2021/05/04 08:11:38;;;;;;;;;;;;;;;15.15;35.77;100189.78;1737557;81;21240;-69
2021/05/04 08:14:07;;;;;;;;;;;;;;;15.20;35.40;100182.55;1741689;81;20144;-68
2021/05/04 08:16:35;;;;;;;;;;;;;;;15.30;35.21;100188.61;1742457;81;20244;-69
2021/05/04 08:19:05;;;;;;;;;;;;;;;15.48;37.54;100191.48;1743747;81;20253;-69
2021/05/04 08:21:34;;;;;;;;;;;;;;;15.63;35.69;100188.66;1751781;81;20233;-66
2021/05/04 08:24:02;;;;;;;;;;;;;;;15.59;34.68;100179.72;1744463;81;21206;-67
2021/05/04 08:26:30;;;;;;;;;;;;;;;15.61;34.92;100186.77;1739666;81;20242;-66
2021/05/04 08:28:58;;;;;;;;;;;;;;;15.62;34.64;100182.97;1748294;81;20113;-65
2021/05/04 08:31:26;;;;;;;;;;;;;;;15.48;34.33;100187.98;1750695;81;20292;-64
2021/05/04 08:33:54;;;;;;;;;;;;;;;15.31;34.27;100190.77;1708157;81;20289;-65
2021/05/04 08:36:24;;;;;;;;;;;;;;;15.14;35.20;100197.08;1730810;81;20295;-65
2021/05/04 08:38:54;;;;;;;;;;;;;;;15.03;35.18;100191.27;1753596;81;20247;-65
2021/05/04 08:41:21;;;;;;;;;;;;;;;14.92;35.16;100182.23;1731916;82;20499;-64
2021/05/04 08:43:50;;;;;;;;;;;;;;;14.77;34.92;100197.70;1707671;81;20219;-64
2021/05/04 08:46:20;;;;;;;;;;;;;;;14.60;36.42;100190.16;1736220;81;20231;-65
2021/05/04 08:48:49;;;;;;;;;;;;;;;14.37;37.84;100199.56;1739279;81;21320;-64
2021/05/04 08:51:17;;;;;;;;;;;;;;;14.19;38.25;100202.50;1736908;81;20134;-64
2021/05/04 08:53:47;;;;;;;;;;;;;;;14.05;38.66;100198.53;1736134;81;20506;-65
2021/05/04 08:56:15;;;;;;;;;;;;;;;13.93;38.07;100200.77;1741794;81;20560;-63
2021/05/04 08:58:43;;;;;;;;;;;;;;;13.90;37.49;100189.64;1734505;81;20217;-64
2021/05/04 09:01:13;;;;;;;;;;;;;;;13.82;36.64;100193.05;1742722;81;21301;-63
2021/05/04 09:03:54;;;;;;;;;;;;;;;13.68;36.77;100187.69;1734328;81;20632;-63
2021/05/04 09:06:28;;;;;;;;;;;;;;;13.61;37.04;100190.52;1708340;81;20501;-64
2021/05/04 09:09:06;;;;;;;;;;;;;;;13.66;36.81;100183.89;1737280;81;20310;-64
2021/05/04 09:11:50;;;;;;;;;;;;;;;13.70;37.00;100178.02;1741055;81;20245;-65
2021/05/04 09:17:10;;;;;;;;;;;;;;;13.24;38.96;100188.73;1750664;81;20466;-63
2021/05/04 09:19:38;;;;;;;;;;;;;;;13.21;40.01;100185.19;1736964;81;20152;-65
2021/05/04 09:22:02;;;;;;;;;;;;;;;13.32;39.50;100181.61;1740019;81;20308;-65
2021/05/04 09:24:36;;;;;;;;;;;;;;;13.55;38.03;100179.37;1735668;81;20280;-65
2021/05/04 09:27:06;;;;;;;;;;;;;;;13.66;35.57;100183.05;1735734;81;21375;-66
2021/05/04 09:29:47;;;;;;;;;;;;;;;13.64;36.13;100175.75;1740070;81;20484;-64
2021/05/04 09:32:20;;;;;;;;;;;;;;;13.64;35.80;100177.10;1745312;81;20221;-64
2021/05/04 09:34:51;;;;;;;;;;;;;;;13.58;35.55;100182.12;1734083;81;20278;-65
2021/05/04 09:37:27;;;;;;;;;;;;;;;13.45;34.95;100193.45;1738926;81;20683;-65
2021/05/04 09:39:56;;;;;;;;;;;;;;;13.30;36.01;100198.54;1733221;81;21248;-65
2021/05/04 09:42:31;;;;;;;;;;;;;;;13.27;37.54;100189.60;1737989;81;20576;-63
2021/05/04 09:44:59;;;;;;;;;;;;;;;13.31;37.22;100177.30;1739025;81;20229;-65
2021/05/04 09:47:27;;;;;;;;;;;;;;;13.40;37.03;100169.15;1733977;81;20256;-66
2021/05/04 09:49:56;;;;;;;;;;;;;;;13.52;35.78;100167.73;1746039;81;20148;-64
2021/05/04 09:52:48;;;;;;;;;;;;;;;13.59;36.59;100167.57;1735061;81;21282;-65
2021/05/04 09:55:16;;;;;;;;;;;;;;;13.67;36.61;100172.57;1739804;81;20126;-65
2021/05/04 09:57:49;;;;;;;;;;;;;;;13.83;35.79;100167.72;1731743;81;20301;-65
2021/05/04 10:00:21;;;;;;;;;;;;;;;13.88;35.50;100164.83;1743869;81;20158;-66
2021/05/04 10:02:48;;;;;;;;;;;;;;;13.83;36.17;100159.64;1736160;81;20160;-66
2021/05/04 10:05:18;;;;;;;;;;;;;;;13.78;38.38;100177.08;1742933;81;21220;-67
2021/05/04 10:07:46;;;;;;;;;;;;;;;13.62;38.80;100179.23;1734340;81;20245;-65
2021/05/04 10:10:15;;;;;;;;;;;;;;;13.38;41.82;100188.75;1744391;81;20270;-67
2021/05/04 10:12:44;;;;;;;;;;;;;;;13.09;43.06;100201.38;1735506;81;20292;-65
2021/05/04 10:15:14;;;;;;;;;;;;;;;12.79;43.73;100196.47;1734125;81;20299;-65
2021/05/04 10:17:42;;;;;;;;;;;;;;;12.61;43.93;100194.72;1732251;81;21252;-64
2021/05/04 10:20:14;;;;;;;;;;;;;;;12.53;44.35;100194.26;1735633;81;20223;-64
2021/05/04 10:22:41;;;;;;;;;;;;;;;12.55;44.09;100190.29;1742952;81;20350;-65
2021/05/04 10:25:11;;;;;;;;;;;;;;;12.66;43.82;100193.20;1737429;81;20174;-64
2021/05/04 10:27:39;;;;;;;;;;;;;;;12.83;43.09;100186.58;1751269;81;20220;-64
2021/05/04 10:30:08;;;;;;;;;;;;;;;13.08;42.93;100178.20;1640721;86;20413;-65
2021/05/04 10:33:01;;;;;;;;;;;;;;;13.32;41.07;100174.88;1618886;86;20255;-65
2021/05/04 10:35:32;;;;;;;;;;;;;;;13.47;40.17;100165.78;1643416;86;20236;-65
2021/05/04 10:38:02;;;;;;;;;;;;;;;13.54;39.41;100157.53;1643435;86;20254;-65
2021/05/04 10:40:31;;;;;;;;;;;;;;;13.58;39.52;100155.99;1643321;86;20260;-65
2021/05/04 10:43:02;;;;;;;;;;;;;;;13.62;38.02;100149.06;1642989;86;22650;-64
2021/05/04 10:45:42;;;;;;;;;;;;;;;13.53;38.39;100154.58;1643926;86;20259;-64
2021/05/04 10:48:10;;;;;;;;;;;;;;;13.42;38.40;100156.25;1681181;81;20256;-64
2021/05/04 10:50:53;;;;;;;;;;;;;;;13.38;38.78;100165.05;1745500;81;20514;-64
2021/05/04 10:53:23;;;;;;;;;;;;;;;13.43;38.81;100162.47;1739351;81;20242;-65
2021/05/04 10:55:59;;;;;;;;;;;;;;;13.46;38.27;100161.98;1739705;81;22135;-63
2021/05/04 10:58:29;;;;;;;;;;;;;;;13.48;37.94;100161.20;1715633;82;20232;-65
2021/05/04 11:01:01;;;;;;;;;;;;;;;13.44;37.28;100152.80;1743805;81;20489;-64
2021/05/04 11:03:34;;;;;;;;;;;;;;;13.37;36.04;100145.91;1737046;81;20225;-64
2021/05/04 11:06:09;;;;;;;;;;;;;;;13.28;36.72;100152.19;1657361;85;20249;-64
2021/05/04 11:08:47;;;;;;;;;;;;;;;13.30;37.19;100150.09;1651796;85;21397;-63
2021/05/04 11:11:29;;;;;;;;;;;;;;;13.38;37.46;100151.59;1656660;85;20229;-65
2021/05/04 11:14:02;;;;;;;;;;;;;;;13.39;37.50;100154.04;1650529;85;20250;-63
2021/05/04 11:16:46;;;;;;;;;;;;;;;13.36;37.99;100151.03;1655348;85;20273;-64
2021/05/04 11:19:30;;;;;;;;;;;;;;;13.30;38.20;100155.47;1655647;85;20256;-64
2021/05/04 11:22:01;;;;;;;;;;;;;;;13.25;37.77;100158.89;1641226;86;21441;-63
2021/05/04 11:24:34;;;;;;;;;;;;;;;13.19;37.83;100158.52;1691067;82;20204;-64
2021/05/04 11:27:09;;;;;;;;;;;;;;;13.18;38.19;100153.37;1724722;82;20227;-64
2021/05/04 11:29:39;;;;;;;;;;;;;;;13.25;38.40;100150.81;1721348;82;20230;-66
2021/05/04 11:32:13;;;;;;;;;;;;;;;13.40;38.54;100144.91;1723796;82;20230;-66
2021/05/04 11:34:53;;;;;;;;;;;;;;;13.59;38.13;100140.64;1724920;82;21378;-65
2021/05/04 11:37:29;;;;;;;;;;;;;;;13.77;37.85;100135.03;1723958;82;20296;-65
2021/05/04 11:40:02;;;;;;;;;;;;;;;13.92;38.09;100134.99;1726001;82;20143;-64
2021/05/04 11:42:36;;;;;;;;;;;;;;;14.08;36.92;100138.20;1723036;82;20840;-66
2021/05/04 11:45:25;;;;;;;;;;;;;;;14.22;34.66;100135.16;1724661;82;20248;-66
2021/05/04 11:48:03;;;;;;;;;;;;;;;14.15;35.19;100133.45;1726707;82;21209;-65
2021/05/04 11:50:32;;;;;;;;;;;;;;;14.14;35.38;100133.70;1725637;82;20322;-65
2021/05/04 11:53:02;;;;;;;;;;;;;;;14.18;35.50;100134.84;1725584;82;20253;-65
2021/05/04 11:55:43;;;;;;;;;;;;;;;14.25;36.13;100138.19;1728740;82;20804;-65
2021/05/04 11:58:22;;;;;;;;;;;;;;;14.42;37.21;100141.38;1727269;82;20275;-64
2021/05/04 12:01:00;;;;;;;;;;;;;;;14.59;36.81;100136.75;1725855;82;21412;-66
2021/05/04 12:03:28;;;;;;;;;;;;;;;14.72;35.01;100132.88;1725972;82;20646;-66
2021/05/04 12:06:00;;;;;;;;;;;;;;;14.79;35.12;100140.25;1702835;82;20301;-67
2021/05/04 12:08:30;;;;;;;;;;;;;;;14.82;33.76;100141.64;1720582;82;20222;-66
2021/05/04 12:10:58;;;;;;;;;;;;;;;14.80;34.64;100148.63;1721852;82;20476;-65
2021/05/04 12:13:28;;;;;;;;;;;;;;;14.79;36.36;100161.03;1722491;82;21323;-64
2021/05/04 12:16:00;;;;;;;;;;;;;;;14.64;37.63;100169.75;1723012;82;20115;-68
2021/05/04 12:18:31;;;;;;;;;;;;;;;14.42;38.93;100155.66;1718911;82;20314;-65
2021/05/04 12:21:02;;;;;;;;;;;;;;;14.35;39.45;100161.25;1718874;82;20340;-66
2021/05/04 12:23:33;;;;;;;;;;;;;;;14.32;37.92;100158.22;1732644;81;20289;-65
2021/05/04 12:26:08;;;;;;;;;;;;;;;14.18;37.44;100156.41;1722706;81;20560;-70
2021/05/04 12:28:53;;;;;;;;;;;;;;;13.99;37.75;100160.70;1722912;81;20223;-66
2021/05/04 12:31:35;;;;;;;;;;;;;;;13.91;37.52;100157.06;1700362;81;20254;-64
2021/05/04 12:34:04;;;;;;;;;;;;;;;13.87;37.95;100155.11;1690699;82;20585;-64
2021/05/04 12:36:42;;;;;;;;;;;;;;;13.83;38.18;100148.05;1733894;81;20253;-63
2021/05/04 12:39:24;;;;;;;;;;;;;;;13.86;37.12;100153.49;1737130;81;21406;-66
2021/05/04 12:41:53;;;;;;;;;;;;;;;13.82;35.91;100139.17;1739691;81;20117;-64
2021/05/04 12:44:26;;;;;;;;;;;;;;;13.70;36.55;100149.19;1725265;81;20209;-65
2021/05/04 12:47:00;;;;;;;;;;;;;;;13.71;36.34;100147.33;1731607;81;20161;-65
2021/05/04 12:49:41;;;;;;;;;;;;;;;13.73;36.31;100142.50;1735480;81;20233;-65
2021/05/04 12:52:13;;;;;;;;;;;;;;;13.73;36.98;100139.81;1749403;81;21213;-64
2021/05/04 12:54:43;;;;;;;;;;;;;;;13.79;36.60;100131.55;1749646;81;20510;-64
2021/05/04 12:57:23;;;;;;;;;;;;;;;13.81;36.62;100134.02;1750012;81;20365;-65